Time;durP1;ratioP1;P1;durP2;ratioP2;P2;SDS_P1;SDS_P2;PMS_P1;PMS_P2;Temp;Humidity;BMP_temperature;BMP_pressure;BME280_temperature;BME280_humidity;BME280_pressure;Samples;Min_cycle;Max_cycle;Signal;HPM_P1;HPM_P2
2022/04/24 00:01:43;;;;;;;36.98;28.45;;;;;;;9.57;71.04;99280.40;2726125;85;21064;-84
2022/04/24 00:05:44;;;;;;;30.62;24.05;;;;;;;9.56;70.89;99277.40;2727380;85;21115;-84
2022/04/24 00:09:46;;;;;;;43.13;31.33;;;;;;;9.57;70.74;99272.44;2726513;86;21127;-85
2022/04/24 00:13:47;;;;;;;35.88;28.90;;;;;;;9.52;71.08;99272.04;2685645;86;21056;-84
2022/04/24 00:17:48;;;;;;;35.50;28.77;;;;;;;9.33;70.67;99269.43;2622032;86;21068;-84
2022/04/24 00:21:49;;;;;;;36.77;28.60;;;;;;;9.19;71.12;99264.08;2735671;85;21079;-84
2022/04/24 00:25:50;;;;;;;34.03;25.32;;;;;;;9.13;71.20;99258.84;2694355;85;21069;-84
2022/04/24 00:29:51;;;;;;;34.50;25.55;;;;;;;8.98;71.46;99256.63;2712172;85;21656;-85
2022/04/24 00:33:53;;;;;;;33.63;27.15;;;;;;;8.81;71.92;99256.00;2702756;86;21099;-84
2022/04/24 00:37:54;;;;;;;43.40;29.75;;;;;;;8.66;72.19;99258.23;2695386;86;21113;-85
2022/04/24 00:41:55;;;;;;;40.45;29.37;;;;;;;8.57;72.15;99249.30;2693765;85;21095;-85
2022/04/24 00:46:13;;;;;;;50.83;34.38;;;;;;;8.52;72.34;99250.20;2695109;85;21030;-84
2022/04/24 00:50:14;;;;;;;49.70;30.95;;;;;;;8.52;72.87;99249.70;2694777;86;21137;-83
2022/04/24 00:54:16;;;;;;;29.95;24.40;;;;;;;8.50;72.75;99240.23;2690668;86;21059;-85
2022/04/24 00:58:18;;;;;;;38.20;29.10;;;;;;;8.35;71.44;99243.72;2705155;86;21056;-85
2022/04/24 01:02:19;;;;;;;37.33;26.95;;;;;;;8.08;72.18;99235.47;2646674;86;21137;-85
2022/04/24 01:06:21;;;;;;;29.82;24.80;;;;;;;7.97;72.74;99236.88;2690401;86;21125;-84
2022/04/24 01:10:22;;;;;;;32.67;23.60;;;;;;;7.84;72.28;99233.98;2693575;86;21091;-84
2022/04/24 01:14:25;;;;;;;28.23;19.92;;;;;;;7.77;72.26;99235.50;2695656;85;21569;-84
2022/04/24 01:18:26;;;;;;;31.55;22.82;;;;;;;7.75;72.30;99233.94;2693984;86;21045;-83
2022/04/24 01:22:28;;;;;;;33.92;23.75;;;;;;;7.70;72.24;99233.05;2698123;85;21063;-84
2022/04/24 01:26:29;;;;;;;50.38;33.05;;;;;;;7.64;72.26;99225.61;2709680;85;21081;-84
2022/04/24 01:30:30;;;;;;;43.73;29.72;;;;;;;7.57;72.47;99224.83;2709914;85;21075;-85
2022/04/24 01:34:31;;;;;;;33.28;24.90;;;;;;;7.51;72.54;99226.69;2716904;85;21067;-84
2022/04/24 01:38:33;;;;;;;37.08;28.30;;;;;;;7.44;73.12;99224.20;2692534;86;21020;-85
2022/04/24 01:42:34;;;;;;;44.77;33.35;;;;;;;7.25;74.24;99223.13;2678026;87;21089;-83
2022/04/24 01:46:35;;;;;;;41.15;29.45;;;;;;;7.19;75.06;99215.72;2699382;86;21714;-84
2022/04/24 01:50:36;;;;;;;43.55;32.53;;;;;;;7.11;74.71;99218.19;2696577;85;21093;-84
2022/04/24 01:54:37;;;;;;;50.63;31.90;;;;;;;7.03;75.08;99211.38;2716166;86;21086;-84
2022/04/24 01:58:40;;;;;;;48.80;34.45;;;;;;;7.02;75.36;99206.58;2697833;86;21058;-84
2022/04/24 02:02:41;;;;;;;49.42;34.00;;;;;;;7.11;75.98;99214.23;2692598;85;21057;-84
2022/04/24 02:06:44;;;;;;;49.67;36.63;;;;;;;7.13;77.04;99210.97;2677369;87;21069;-84
2022/04/24 02:10:45;;;;;;;41.68;28.98;;;;;;;7.17;77.17;99203.12;2700035;86;21544;-84
2022/04/24 02:14:46;;;;;;;39.85;33.88;;;;;;;7.20;77.36;99202.85;2716961;85;21114;-84
2022/04/24 02:18:48;;;;;;;39.58;30.72;;;;;;;7.19;77.46;99193.74;2705701;86;21477;-84
2022/04/24 02:22:50;;;;;;;50.60;35.15;;;;;;;7.18;78.24;99191.56;2708834;85;21574;-84
2022/04/24 02:26:51;;;;;;;47.00;35.00;;;;;;;7.20;78.10;99194.91;2692534;86;21085;-83
2022/04/24 02:30:52;;;;;;;47.05;32.30;;;;;;;7.12;78.53;99186.81;2685736;86;21056;-84
2022/04/24 02:34:53;;;;;;;45.58;33.98;;;;;;;7.12;78.78;99185.48;2684067;86;21066;-83
2022/04/24 02:38:54;;;;;;;51.25;35.08;;;;;;;7.13;78.81;99182.69;2669495;86;21081;-83
2022/04/24 02:42:56;;;;;;;45.65;32.98;;;;;;;7.12;79.09;99178.87;2690973;86;21093;-84
2022/04/24 02:46:57;;;;;;;49.48;34.90;;;;;;;7.11;78.99;99171.91;2696681;86;21085;-84
2022/04/24 02:50:58;;;;;;;50.60;33.75;;;;;;;7.06;79.08;99165.69;2687958;86;21075;-84
2022/04/24 02:54:59;;;;;;;42.95;30.57;;;;;;;7.02;79.01;99160.78;2687678;86;21613;-84
2022/04/24 02:59:00;;;;;;;39.80;31.05;;;;;;;6.99;78.60;99158.75;2680784;86;21641;-84
2022/04/24 03:03:01;;;;;;;48.17;31.15;;;;;;;6.92;78.03;99154.97;2688371;87;21127;-84
2022/04/24 03:07:03;;;;;;;37.03;27.87;;;;;;;6.87;77.96;99145.24;2688345;86;21058;-85
2022/04/24 03:11:04;;;;;;;42.73;30.82;;;;;;;6.81;77.81;99144.45;2717365;86;21081;-84
2022/04/24 03:15:07;;;;;;;35.75;28.92;;;;;;;6.66;78.07;99148.73;2701299;86;21048;-84
2022/04/24 03:19:08;;;;;;;44.63;32.13;;;;;;;6.65;78.22;99141.77;2714465;85;21197;-83
2022/04/24 03:23:09;;;;;;;44.13;31.55;;;;;;;6.66;78.24;99139.98;2695858;85;21097;-84
2022/04/24 03:27:10;;;;;;;38.38;27.85;;;;;;;6.67;78.12;99134.55;2691140;86;21119;-83
2022/04/24 03:31:12;;;;;;;41.80;30.27;;;;;;;6.71;78.12;99135.14;2712497;85;21047;-84
2022/04/24 03:35:13;;;;;;;36.63;27.48;;;;;;;6.73;78.74;99135.84;2711057;86;21077;-84
2022/04/24 03:39:14;;;;;;;42.08;29.95;;;;;;;6.76;78.39;99125.01;2689162;86;21066;-84
2022/04/24 03:43:15;;;;;;;42.55;30.43;;;;;;;6.80;78.33;99117.20;2676090;87;21024;-84
2022/04/24 03:47:16;;;;;;;48.45;31.97;;;;;;;6.83;78.56;99120.89;2703701;86;21086;-84
2022/04/24 03:51:17;;;;;;;39.33;28.45;;;;;;;6.86;78.73;99117.98;2673031;86;21074;-84
2022/04/24 03:55:18;;;;;;;38.78;27.13;;;;;;;6.95;78.77;99123.45;2688869;86;21084;-84
2022/04/24 03:59:19;;;;;;;37.08;28.00;;;;;;;7.03;78.90;99117.50;2690419;85;21105;-84
2022/04/24 04:03:21;;;;;;;43.15;28.40;;;;;;;7.12;78.93;99117.55;2684034;86;21165;-84
2022/04/24 04:07:22;;;;;;;35.35;27.62;;;;;;;7.28;79.20;99122.38;2696345;86;21119;-84
2022/04/24 04:11:23;;;;;;;43.75;28.52;;;;;;;7.64;78.96;99133.83;2704009;86;21156;-84
2022/04/24 04:15:24;;;;;;;55.75;40.65;;;;;;;8.12;77.85;99133.56;2718984;85;21081;-84
2022/04/24 04:19:25;;;;;;;52.50;37.88;;;;;;;8.60;77.15;99136.36;2697820;86;21115;-84
2022/04/24 04:23:26;;;;;;;38.60;27.85;;;;;;;9.09;75.43;99139.41;2687136;86;21053;-84
2022/04/24 04:27:27;;;;;;;54.45;38.40;;;;;;;9.36;74.22;99153.22;2673160;86;21015;-84
2022/04/24 04:31:29;;;;;;;47.03;31.73;;;;;;;9.91;74.15;99152.02;2684173;85;21040;-84
2022/04/24 04:35:30;;;;;;;43.35;27.85;;;;;;;10.67;73.77;99169.38;2727815;86;21059;-84
2022/04/24 04:39:31;;;;;;;37.10;28.52;;;;;;;11.23;71.44;99169.59;2710172;86;21058;-83
2022/04/24 04:43:32;;;;;;;33.80;27.52;;;;;;;11.14;67.85;99163.37;2698985;86;21110;-83
2022/04/24 04:47:33;;;;;;;34.40;28.50;;;;;;;10.97;68.33;99164.59;2694452;86;21100;-84
2022/04/24 04:51:35;;;;;;;35.48;27.37;;;;;;;10.70;68.15;99165.08;2694040;86;21051;-84
2022/04/24 04:55:36;;;;;;;45.05;31.27;;;;;;;10.31;69.13;99165.86;2698500;86;21079;-84
2022/04/24 04:59:37;;;;;;;42.05;30.10;;;;;;;9.99;70.36;99162.72;2701324;86;21094;-84
2022/04/24 05:03:38;;;;;;;45.85;31.12;;;;;;;9.70;71.00;99169.87;2716777;86;21060;-84
2022/04/24 05:07:40;;;;;;;33.23;24.98;;;;;;;9.51;72.97;99170.81;2697186;86;21124;-84
2022/04/24 05:11:42;;;;;;;37.38;28.05;;;;;;;9.37;72.99;99171.28;2719617;86;21078;-84
2022/04/24 05:15:43;;;;;;;41.70;28.73;;;;;;;9.37;72.78;99163.32;2691387;86;21121;-84
2022/04/24 05:19:44;;;;;;;33.13;26.95;;;;;;;9.49;73.92;99163.49;2687419;87;21099;-84
2022/04/24 05:23:46;;;;;;;34.88;26.93;;;;;;;9.72;74.06;99168.41;2726130;86;21027;-84
2022/04/24 05:27:48;;;;;;;33.70;26.10;;;;;;;9.86;73.64;99164.41;2683676;86;21105;-84
2022/04/24 05:31:49;;;;;;;34.58;27.40;;;;;;;10.22;74.18;99160.95;2698328;86;21089;-84
2022/04/24 05:35:50;;;;;;;32.93;24.95;;;;;;;10.86;72.33;99155.56;2724658;85;21708;-84
2022/04/24 05:39:51;;;;;;;32.13;23.95;;;;;;;11.68;69.36;99139.67;2728096;85;21067;-84
2022/04/24 05:43:52;;;;;;;29.70;22.67;;;;;;;12.00;67.85;99143.44;2698572;85;21129;-84
2022/04/24 05:47:54;;;;;;;25.72;22.13;;;;;;;11.99;67.74;99150.59;2630243;86;21125;-84
2022/04/24 05:51:55;;;;;;;29.75;22.62;;;;;;;11.85;69.53;99153.88;2686031;87;21150;-84
2022/04/24 05:55:57;;;;;;;29.90;24.37;;;;;;;11.79;69.92;99135.88;2677431;86;21090;-84
2022/04/24 05:59:58;;;;;;;26.33;22.27;;;;;;;11.74;69.38;99140.35;2700622;85;21079;-83
2022/04/24 06:03:59;;;;;;;29.98;20.92;;;;;;;11.71;70.00;99131.36;2722447;85;21000;-84
2022/04/24 06:08:00;;;;;;;20.88;18.50;;;;;;;11.69;70.92;99130.69;2699375;86;21079;-84
2022/04/24 06:12:02;;;;;;;27.25;20.50;;;;;;;11.61;70.98;99124.02;2668056;86;21087;-84
2022/04/24 06:16:04;;;;;;;29.05;19.48;;;;;;;11.51;71.22;99126.30;2699715;85;21514;-83
2022/04/24 06:20:07;;;;;;;27.80;18.23;;;;;;;11.50;72.67;99116.64;2687061;86;21067;-84
2022/04/24 06:24:07;;;;;;;21.52;18.27;;;;;;;11.57;72.84;99111.51;2693910;86;21059;-83
2022/04/24 06:28:09;;;;;;;22.87;18.10;;;;;;;11.64;72.11;99107.70;2712447;86;21122;-84
2022/04/24 06:32:10;;;;;;;22.07;16.40;;;;;;;11.80;72.39;99107.76;2718789;84;21117;-84
2022/04/24 06:36:11;;;;;;;22.52;16.73;;;;;;;12.02;72.08;99097.50;2657897;87;21040;-84
2022/04/24 06:40:14;;;;;;;21.68;17.23;;;;;;;12.74;72.43;99099.99;2696810;83;21087;-83
2022/04/24 06:44:15;;;;;;;20.23;14.93;;;;;;;13.52;69.12;99094.94;2678411;86;21091;-84
2022/04/24 06:48:17;;;;;;;19.75;15.28;;;;;;;13.95;65.67;99096.36;2658095;86;21082;-83
2022/04/24 06:52:19;;;;;;;20.15;15.23;;;;;;;14.09;65.51;99083.57;2701657;85;21119;-84
2022/04/24 06:56:20;;;;;;;16.25;13.60;;;;;;;14.42;64.69;99075.78;2726162;85;21108;-84
2022/04/24 07:00:23;;;;;;;15.55;12.18;;;;;;;14.70;63.82;99081.38;2700014;85;21166;-84
2022/04/24 07:04:24;;;;;;;17.17;13.75;;;;;;;14.98;62.28;99070.59;2717991;85;21040;-84
2022/04/24 07:08:25;;;;;;;11.95;10.63;;;;;;;15.01;62.58;99062.71;2698243;86;21079;-85
2022/04/24 07:12:27;;;;;;;13.78;11.78;;;;;;;15.13;62.10;99046.48;2700684;85;21005;-84
2022/04/24 07:16:28;;;;;;;13.55;12.15;;;;;;;15.18;61.93;99043.25;2704820;86;21576;-85
2022/04/24 07:20:29;;;;;;;12.68;10.30;;;;;;;15.16;60.99;99031.41;2686827;86;21083;-85
2022/04/24 07:24:30;;;;;;;13.48;10.48;;;;;;;15.23;60.26;99039.50;2728238;85;21037;-86
2022/04/24 07:28:32;;;;;;;14.85;10.55;;;;;;;15.22;60.35;99041.85;2671618;86;21063;-84
2022/04/24 07:32:49;;;;;;;12.03;10.75;;;;;;;15.11;59.97;99028.43;2708909;85;21060;-84
2022/04/24 07:36:49;;;;;;;;;;;;;;;15.04;59.99;99031.54;2722097;86;21422;-84
2022/04/24 07:40:50;;;;;;;17.62;8.85;;;;;;;14.97;60.86;99028.28;2702646;86;20625;-84
2022/04/24 07:44:52;;;;;;;10.18;8.73;;;;;;;14.96;61.04;99031.97;2723925;85;21036;-84
2022/04/24 07:48:52;;;;;;;9.65;7.87;;;;;;;15.07;61.46;99026.66;2684201;86;21869;-84
2022/04/24 07:52:54;;;;;;;12.47;7.90;;;;;;;15.33;60.38;99029.83;2724665;85;21082;-86
2022/04/24 07:56:55;;;;;;;11.97;7.58;;;;;;;15.41;59.22;99033.76;2725525;85;21059;-83
2022/04/24 08:00:56;;;;;;;10.80;7.75;;;;;;;15.41;58.14;99028.39;2698508;86;21055;-85
2022/04/24 08:04:58;;;;;;;10.80;8.10;;;;;;;15.41;58.05;99029.21;2701194;85;21068;-84
2022/04/24 08:08:59;;;;;;;10.75;8.98;;;;;;;15.43;58.03;99026.36;2697620;86;21040;-84
2022/04/24 08:13:03;;;;;;;13.83;7.65;;;;;;;15.54;59.38;99036.59;2712457;85;21091;-91
2022/04/24 08:17:04;;;;;;;8.30;7.58;;;;;;;15.64;57.96;99038.97;2698380;86;21574;-81
2022/04/24 08:21:05;;;;;;;7.92;7.20;;;;;;;15.81;59.45;99028.83;2710968;85;21055;-80
2022/04/24 08:25:10;;;;;;;9.18;6.95;;;;;;;15.85;58.40;99031.97;2708379;86;21095;-82
2022/04/24 08:29:11;;;;;;;15.90;6.17;;;;;;;15.84;57.04;99025.76;2676448;86;21051;-81
2022/04/24 08:33:13;;;;;;;9.58;6.67;;;;;;;15.85;57.18;99038.14;2728008;86;21067;-82
2022/04/24 08:37:14;;;;;;;10.03;6.25;;;;;;;15.81;56.79;99036.88;2728894;85;21060;-81
2022/04/24 08:41:19;;;;;;;10.85;6.78;;;;;;;15.71;56.85;99035.84;2736142;85;21072;-90
2022/04/24 08:45:25;;;;;;;10.65;6.90;;;;;;;15.63;56.71;99042.67;2726422;86;21101;-80
2022/04/24 08:49:31;;;;;;;10.08;7.00;;;;;;;15.59;57.58;99039.22;2737780;85;21044;-80
2022/04/24 08:53:33;;;;;;;;;;;;;;;15.63;57.67;99044.02;2738130;86;21040;-81
2022/04/24 08:57:34;;;;;;;6.80;5.53;;;;;;;15.68;58.35;99034.89;2741081;86;20133;-80
2022/04/24 09:01:45;;;;;;;8.00;7.20;;;;;;;15.67;57.63;99027.02;2691986;87;21035;-80
2022/04/24 09:05:46;;;;;;;8.93;6.17;;;;;;;15.63;57.45;99017.70;2720172;86;21677;-79
2022/04/24 09:09:53;;;;;;;7.83;6.53;;;;;;;15.57;58.12;99019.29;2669425;86;21085;-79
2022/04/24 09:18:13;;;;;;;6.47;5.70;;;;;;;15.41;57.82;99015.00;2728834;85;21039;-79
2022/04/24 09:22:15;;;;;;;7.22;6.22;;;;;;;15.32;56.54;99002.72;2723723;85;21119;-79
2022/04/24 09:26:17;;;;;;;8.03;6.08;;;;;;;15.26;57.13;99009.68;2728424;85;21091;-80
2022/04/24 09:30:18;;;;;;;9.95;6.53;;;;;;;15.22;58.17;99010.55;2727810;85;21055;-80
2022/04/24 09:34:21;;;;;;;7.37;5.85;;;;;;;15.27;58.30;98982.69;2721323;85;21011;-80
2022/04/24 09:38:23;;;;;;;7.85;6.83;;;;;;;15.27;57.89;98996.08;2726239;85;21179;-79
2022/04/24 09:42:24;;;;;;;8.60;7.05;;;;;;;15.28;56.56;99000.42;2715458;86;21072;-79
2022/04/24 09:46:27;;;;;;;12.88;6.65;;;;;;;15.22;56.73;99004.36;2722487;85;21126;-84
2022/04/24 09:50:29;;;;;;;8.85;7.53;;;;;;;15.15;56.65;98988.23;2693758;85;21090;-80
2022/04/24 09:54:31;;;;;;;9.75;8.58;;;;;;;15.08;56.71;98993.50;2722873;85;21059;-81
2022/04/24 09:58:32;;;;;;;14.03;8.50;;;;;;;15.06;56.51;98990.67;2727977;86;21031;-84
2022/04/24 10:02:34;;;;;;;16.12;7.83;;;;;;;15.11;57.01;98992.28;2729025;85;21071;-81
2022/04/24 10:06:36;;;;;;;12.13;9.45;;;;;;;15.21;56.89;98983.45;2727710;85;21050;-81
2022/04/24 10:10:37;;;;;;;13.53;8.38;;;;;;;15.33;57.26;98973.56;2724626;86;21055;-81
2022/04/24 10:14:59;;;;;;;8.10;6.35;;;;;;;15.56;56.89;98962.69;2716384;86;21077;-83
2022/04/24 10:19:20;;;;;;;12.23;8.50;;;;;;;15.81;55.46;98953.76;2738397;86;21036;-83
2022/04/24 10:23:32;;;;;;;11.93;8.38;;;;;;;15.85;55.38;98953.69;2704561;86;21047;-79
2022/04/24 10:27:44;;;;;;;9.48;6.78;;;;;;;15.68;54.28;98953.62;2724029;86;21075;-79
2022/04/24 10:31:47;;;;;;;8.15;7.35;;;;;;;15.52;55.69;98955.53;2710505;86;21063;-80
2022/04/24 10:35:54;;;;;;;9.53;7.65;;;;;;;15.45;57.23;98952.49;2715156;86;21064;-86
2022/04/24 10:39:58;;;;;;;11.20;9.05;;;;;;;15.24;55.85;98946.91;2734553;86;21118;-84
2022/04/24 10:44:12;;;;;;;8.88;7.70;;;;;;;15.08;56.08;98932.40;2732235;85;21079;-89
2022/04/24 10:48:17;;;;;;;13.95;8.65;;;;;;;15.01;56.74;98933.66;2725555;85;21741;-85
2022/04/24 10:52:19;;;;;;;10.10;7.37;;;;;;;15.04;57.75;98930.62;2711864;86;22253;-85
2022/04/24 10:56:20;;;;;;;7.65;6.75;;;;;;;15.01;57.22;98924.81;2705647;86;21549;-82
2022/04/24 11:00:28;;;;;;;12.05;8.05;;;;;;;15.03;58.02;98922.25;2722498;86;20988;-82
2022/04/24 11:04:35;;;;;;;11.70;9.40;;;;;;;15.04;57.23;98913.72;2645698;83;20980;-84
2022/04/24 11:08:42;;;;;;;12.20;8.33;;;;;;;15.06;57.88;98918.37;2729818;86;21056;-81
2022/04/24 11:12:43;;;;;;;32.20;8.88;;;;;;;15.11;57.65;98926.17;2724546;86;21114;-81
2022/04/24 11:16:51;;;;;;;11.08;8.63;;;;;;;15.12;57.94;98930.50;2733948;86;21098;-81
2022/04/24 11:21:03;;;;;;;7.20;6.50;;;;;;;15.11;59.31;98915.45;2723323;86;21020;-81
2022/04/24 11:25:06;;;;;;;11.50;8.68;;;;;;;15.11;57.58;98914.61;2723855;85;21067;-81
2022/04/24 11:29:10;;;;;;;9.05;8.15;;;;;;;15.05;57.62;98906.84;2667859;86;21519;-81
2022/04/24 11:33:12;;;;;;;9.15;7.95;;;;;;;15.03;57.72;98900.83;2698653;85;21079;-81
2022/04/24 11:37:13;;;;;;;10.00;8.85;;;;;;;15.05;58.30;98904.17;2725961;85;21056;-81
2022/04/24 11:41:15;;;;;;;14.73;8.20;;;;;;;15.05;58.29;98900.64;2677016;86;21074;-81
2022/04/24 11:54:01;;;;;;;10.72;9.73;;;;;;;15.16;59.88;98889.45;2726805;86;21051;-82
2022/04/24 11:58:04;;;;;;;13.90;11.28;;;;;;;15.20;60.21;98890.72;2720090;85;21701;-83
2022/04/24 12:02:09;;;;;;;13.48;9.78;;;;;;;15.25;59.88;98882.13;2692112;86;21016;-82
2022/04/24 12:06:11;;;;;;;10.90;9.05;;;;;;;15.30;59.50;98885.55;2732147;85;21035;-83
2022/04/24 12:10:13;;;;;;;15.32;9.45;;;;;;;15.33;58.64;98883.83;2730461;85;22157;-88
2022/04/24 12:14:16;;;;;;;15.10;11.68;;;;;;;15.36;59.16;98884.28;2736787;85;21079;-86
2022/04/24 12:18:25;;;;;;;15.40;11.75;;;;;;;15.32;60.75;98886.18;2727421;85;21054;-85
2022/04/24 12:22:34;;;;;;;15.80;12.03;;;;;;;15.23;61.68;98886.32;2715879;85;21166;-83
2022/04/24 12:26:47;;;;;;;12.30;10.88;;;;;;;15.15;62.97;98879.76;2729952;86;21059;-86
2022/04/24 12:30:48;;;;;;;19.52;13.55;;;;;;;15.11;63.33;98876.62;2715498;85;21059;-83
2022/04/24 12:34:49;;;;;;;13.93;10.28;;;;;;;15.05;62.05;98869.85;2723981;85;21582;-82
2022/04/24 12:39:01;;;;;;;13.88;11.45;;;;;;;14.93;63.58;98875.69;2736876;85;21102;-82
2022/04/24 12:43:03;;;;;;;16.60;12.70;;;;;;;14.80;63.13;98868.88;2729061;85;21595;-82
2022/04/24 12:47:04;;;;;;;14.95;11.18;;;;;;;14.61;63.23;98871.09;2723381;86;21059;-82
2022/04/24 12:51:06;;;;;;;18.92;12.50;;;;;;;14.40;63.95;98865.98;2725105;85;21062;-82
2022/04/24 12:55:07;;;;;;;12.53;11.33;;;;;;;14.22;65.38;98869.55;2726267;85;21043;-81
2022/04/24 12:59:08;;;;;;;13.13;11.63;;;;;;;14.00;64.32;98874.80;2726444;85;21039;-81
2022/04/24 13:03:15;;;;;;;13.55;10.43;;;;;;;13.85;66.23;98864.05;2679920;87;21046;-82
2022/04/24 13:07:16;;;;;;;12.90;11.48;;;;;;;13.65;68.79;98859.75;2648575;87;21093;-82
2022/04/24 13:11:17;;;;;;;13.00;11.43;;;;;;;13.41;70.75;98863.75;2666498;87;21096;-83
2022/04/24 13:15:18;;;;;;;14.78;13.10;;;;;;;13.22;72.83;98864.23;2668379;87;21758;-83
2022/04/24 13:19:19;;;;;;;16.05;12.88;;;;;;;13.08;74.50;98856.48;2666416;87;21089;-83
2022/04/24 13:23:21;;;;;;;17.37;12.75;;;;;;;13.03;74.37;98855.67;2719398;85;21115;-86
2022/04/24 13:27:22;;;;;;;24.20;17.48;;;;;;;12.98;75.89;98849.55;2603017;88;21046;-83
2022/04/24 13:31:23;;;;;;;16.70;13.55;;;;;;;12.99;76.53;98841.87;2656659;86;21112;-83
2022/04/24 13:35:25;;;;;;;29.92;20.27;;;;;;;13.00;77.46;98848.88;2631153;88;21077;-83
2022/04/24 13:39:26;;;;;;;30.55;20.50;;;;;;;13.00;77.92;98844.87;2651742;87;21122;-82
2022/04/24 13:43:28;;;;;;;18.65;15.35;;;;;;;12.99;77.74;98841.87;2645773;87;21069;-82
2022/04/24 13:47:29;;;;;;;22.15;14.50;;;;;;;13.00;78.06;98842.69;2634731;87;21073;-83
2022/04/24 13:51:30;;;;;;;19.42;15.70;;;;;;;13.00;79.04;98847.54;2641131;89;21124;-83
2022/04/24 13:55:35;;;;;;;22.25;16.65;;;;;;;13.00;79.72;98834.19;2660868;86;21097;-82
2022/04/24 13:59:36;;;;;;;24.98;20.35;;;;;;;12.98;80.27;98837.55;2660274;87;21608;-83
2022/04/24 14:03:39;;;;;;;30.95;21.40;;;;;;;13.02;80.75;98834.52;2654954;86;21007;-82
2022/04/24 14:07:40;;;;;;;33.48;24.02;;;;;;;13.02;81.82;98831.84;2716325;86;21610;-82
2022/04/24 14:11:43;;;;;;;19.40;16.48;;;;;;;13.05;84.24;98828.81;2645623;86;21079;-82
2022/04/24 14:15:44;;;;;;;38.50;25.55;;;;;;;13.05;84.82;98826.15;2720345;85;21554;-82
2022/04/24 14:19:45;;;;;;;33.10;24.12;;;;;;;13.04;85.35;98825.83;2714254;85;21622;-83
2022/04/24 14:23:46;;;;;;;24.80;20.12;;;;;;;13.09;85.88;98836.30;2714076;85;21031;-83
2022/04/24 14:27:49;;;;;;;18.92;15.10;;;;;;;13.07;87.14;98821.45;2718787;85;21102;-83
2022/04/24 14:31:50;;;;;;;17.73;15.93;;;;;;;13.09;87.68;98822.11;2680892;87;21085;-83
2022/04/24 14:35:51;;;;;;;17.40;15.10;;;;;;;13.09;88.01;98825.63;2654512;87;21057;-83
2022/04/24 14:39:52;;;;;;;32.93;24.30;;;;;;;13.06;88.42;98825.14;2632713;89;21132;-82
2022/04/24 14:43:54;;;;;;;25.90;19.67;;;;;;;13.03;88.98;98831.65;2597998;88;21679;-83
2022/04/24 14:56:35;;;;;;;25.35;17.40;;;;;;;13.09;91.68;98836.30;2669419;87;21099;-83
2022/04/24 15:00:37;;;;;;;36.55;28.17;;;;;;;13.16;92.03;98825.72;2729729;85;21047;-82
2022/04/24 15:04:38;;;;;;;35.55;25.60;;;;;;;13.22;92.18;98833.03;2725349;85;21036;-82
2022/04/24 15:08:39;;;;;;;43.48;29.70;;;;;;;13.28;92.66;98832.83;2738936;85;21032;-83
2022/04/24 15:12:42;;;;;;;33.48;22.67;;;;;;;13.36;93.21;98835.91;2729629;86;21016;-83
2022/04/24 15:16:43;;;;;;;29.80;19.95;;;;;;;13.39;91.00;98838.25;2712470;85;21044;-83
2022/04/24 15:20:44;;;;;;;21.27;17.65;;;;;;;13.46;92.38;98836.53;2731110;85;21097;-83
2022/04/24 15:24:46;;;;;;;19.77;15.75;;;;;;;13.54;93.63;98841.80;2716598;86;21072;-83
2022/04/24 15:28:47;;;;;;;19.70;17.42;;;;;;;13.52;91.12;98841.15;2713875;85;21603;-83
2022/04/24 15:32:48;;;;;;;23.73;19.02;;;;;;;13.55;91.79;98846.12;2736821;85;21059;-83
2022/04/24 15:36:50;;;;;;;22.48;17.10;;;;;;;13.64;93.57;98852.75;2731231;86;21067;-83
2022/04/24 15:40:51;;;;;;;22.07;15.85;;;;;;;13.63;91.11;98858.58;2737460;85;21074;-83
2022/04/24 15:49:13;;;;;;;18.10;16.20;;;;;;;13.09;88.32;98861.66;2721910;86;21055;-80
2022/04/24 15:53:14;;;;;;;34.58;29.55;;;;;;;12.85;89.67;98859.97;2714243;85;21067;-81
2022/04/24 15:57:15;;;;;;;29.40;25.72;;;;;;;12.74;91.48;98859.02;2735976;85;21106;-81
2022/04/24 16:01:16;;;;;;;37.30;32.63;;;;;;;12.67;90.54;98862.39;2707272;85;21048;-82
2022/04/24 16:05:18;;;;;;;29.77;26.62;;;;;;;12.65;93.27;98863.07;2736297;85;21043;-82
2022/04/24 16:09:19;;;;;;;35.10;26.65;;;;;;;12.58;92.00;98868.79;2732714;85;21051;-82
2022/04/24 16:13:20;;;;;;;27.27;23.83;;;;;;;12.61;94.09;98862.25;2700540;85;21063;-82
2022/04/24 16:17:21;;;;;;;24.35;17.82;;;;;;;12.79;94.76;98868.69;2730233;86;21040;-82
2022/04/24 16:21:23;;;;;;;20.60;16.75;;;;;;;12.83;93.74;98861.98;2716903;86;21016;-80
2022/04/24 16:25:24;;;;;;;19.50;15.78;;;;;;;12.81;93.49;98856.81;2716008;84;21056;-81
2022/04/24 16:33:45;;;;;;;19.70;16.17;;;;;;;12.64;93.52;98846.73;2728446;86;21044;-82
2022/04/24 16:37:49;;;;;;;16.52;14.23;;;;;;;12.55;93.71;98838.44;2733000;85;21039;-81
2022/04/24 16:41:49;;;;;;;20.95;17.60;;;;;;;12.42;93.92;98835.84;2695644;86;21047;-82
2022/04/24 16:45:50;;;;;;;18.77;16.90;;;;;;;12.30;94.67;98839.88;2722556;85;22030;-83
2022/04/24 16:49:51;;;;;;;26.23;20.70;;;;;;;12.17;95.58;98830.26;2704507;85;21108;-83
2022/04/24 17:02:30;;;;;;;26.93;22.40;;;;;;;11.74;97.69;98819.35;2691335;86;21112;-83
2022/04/24 17:06:31;;;;;;;24.77;22.10;;;;;;;11.58;98.73;98817.04;2736741;85;21501;-83
2022/04/24 17:10:36;;;;;;;29.35;23.40;;;;;;;11.44;99.58;98795.11;2707950;85;21106;-82
2022/04/24 17:14:37;;;;;;;30.00;25.88;;;;;;;11.28;100.00;98802.10;2734083;86;21032;-82
2022/04/24 17:18:38;;;;;;;31.57;24.60;;;;;;;11.17;100.00;98785.12;2739680;85;21078;-83
2022/04/24 17:22:39;;;;;;;29.40;22.45;;;;;;;11.11;100.00;98778.66;2662586;85;21036;-83
2022/04/24 17:26:40;;;;;;;40.70;30.08;;;;;;;11.04;100.00;98791.46;2731827;85;21129;-83
2022/04/24 17:30:42;;;;;;;29.57;24.07;;;;;;;11.01;100.00;98781.97;2735452;86;21569;-84
2022/04/24 17:34:43;;;;;;;30.72;24.87;;;;;;;10.94;100.00;98782.31;2709173;86;21067;-83
2022/04/24 17:38:45;;;;;;;29.52;24.50;;;;;;;10.87;100.00;98791.45;2704324;86;21092;-83
2022/04/24 17:42:49;;;;;;;36.23;30.95;;;;;;;10.84;100.00;98795.77;2720477;86;21060;-83
2022/04/24 17:46:51;;;;;;;50.45;32.05;;;;;;;10.79;100.00;98793.59;2734060;85;21385;-83
2022/04/24 17:50:54;;;;;;;32.48;27.15;;;;;;;10.78;100.00;98789.27;2731919;85;21067;-82
2022/04/24 17:54:56;;;;;;;37.90;24.77;;;;;;;10.73;100.00;98790.75;2728428;86;21025;-83
2022/04/24 17:58:58;;;;;;;28.92;24.12;;;;;;;10.69;100.00;98794.22;2735043;85;21420;-83
2022/04/24 18:02:59;;;;;;;31.95;24.30;;;;;;;10.67;100.00;98792.23;2725158;85;21080;-82
2022/04/24 18:07:02;;;;;;;27.67;22.95;;;;;;;10.70;100.00;98794.08;2659988;85;21086;-84
2022/04/24 18:11:11;;;;;;;29.23;24.57;;;;;;;10.66;100.00;98790.56;2720985;86;21689;-84
2022/04/24 18:15:09;;;;;;;28.87;24.00;;;;;;;10.63;100.00;98796.22;2687832;86;21398;-83
2022/04/24 18:19:12;;;;;;;33.53;26.30;;;;;;;10.61;100.00;98787.09;2717124;85;21049;-83
2022/04/24 18:23:13;;;;;;;30.32;24.12;;;;;;;10.58;100.00;98794.03;2701040;86;21502;-83
2022/04/24 18:27:15;;;;;;;27.65;22.45;;;;;;;10.57;100.00;98800.35;2718506;86;21713;-84
2022/04/24 18:31:17;;;;;;;25.55;22.55;;;;;;;10.57;100.00;98800.35;2723537;85;21020;-83
2022/04/24 18:35:18;;;;;;;30.77;21.87;;;;;;;10.56;100.00;98794.22;2729152;85;21008;-84
2022/04/24 18:39:19;;;;;;;27.37;21.90;;;;;;;10.62;100.00;98801.20;2731167;85;21076;-84
2022/04/24 18:43:23;;;;;;;23.45;19.10;;;;;;;10.65;100.00;98809.70;2676516;86;21052;-84
2022/04/24 18:47:23;;;;;;;19.65;17.23;;;;;;;10.64;100.00;98818.67;2680688;86;21067;-84
2022/04/24 18:51:24;;;;;;;22.02;17.45;;;;;;;10.70;100.00;98823.33;2734617;86;21051;-83
2022/04/24 18:55:26;;;;;;;19.00;17.15;;;;;;;10.69;100.00;98816.34;2736398;85;21091;-84
2022/04/24 18:59:29;;;;;;;23.70;18.57;;;;;;;10.69;100.00;98832.30;2734206;85;21656;-83
2022/04/24 19:03:30;;;;;;;18.70;15.32;;;;;;;10.71;100.00;98827.65;2721658;86;21063;-83
2022/04/24 19:07:33;;;;;;;19.87;17.37;;;;;;;10.73;100.00;98831.49;2729167;86;21089;-83
2022/04/24 19:11:35;;;;;;;18.35;15.30;;;;;;;10.77;100.00;98838.62;2719268;86;21047;-84
2022/04/24 19:15:36;;;;;;;19.35;16.12;;;;;;;10.78;100.00;98834.97;2725711;86;21059;-83
2022/04/24 19:19:37;;;;;;;23.40;17.42;;;;;;;10.80;100.00;98839.62;2720748;86;21044;-83